Terminal Aerodrome Forecast
Issued by NWS Melbourne, FL

Home | Current Version | Previous Version | Text Only | Print | Product List | Glossary On
Versions: 1 2 3 4 5 6 7 8 9 10 11 12
000
FTUS42 KMLB 301700 RRA
TAFVRB
TAF
KVRB 301743Z 3018/3118 29012G19KT P6SM SCT025 SCT040
      TEMPO 3020/3022 BKN025
     FM302200 33011KT P6SM SCT030 SCT060 SCT250
     FM310200 01008KT P6SM SCT250
     FM311400 05012G20KT P6SM FEW250=

USA.gov is the U.S. government's official web portal to all federal, state and local government web resources and services.